Kyokushinmaru No.2 — JD2274 — position and weather

sailwx.info

Track history (hours):
 
Tides and Currents Weather Stations Pressure Air Temp Water Temp Dewpoint Dewpoint Depression Visibility Wind Speed Wind Dir Waves Ship Positions

Kyokushinmaru No.2

Last reported at 2018-Feb-24 05:29 UTC. Time now 2018-Feb-24 05:59 UTC.
Position N 34°34' E 135°25'.

Length 58 m; draft 4.6 m.

Type: Tanker. MMSI: 431501862.

Date/timePositionNaut miles runAvg speedWind from/ knotsBaromVisibWave heightAir tempDewpointWater temp
2018-Feb-24 05:29N 34°34' E 135°25'0 0.0
2018-Feb-24 04:56N 34°34' E 135°25'0 0.0
2018-Feb-24 04:23N 34°34' E 135°25'0 0.0
2018-Feb-24 04:00N 34°34' E 135°25'0 0.6
2018-Feb-24 03:31N 34°34' E 135°25'4 8.3
2018-Feb-24 03:00N 34°32' E 135°20'0 0.5
2018-Feb-24 02:30N 34°32' E 135°20'0 0.0
2018-Feb-24 02:00N 34°32' E 135°20'0 0.0
2018-Feb-24 01:27N 34°32' E 135°20'0 0.0
2018-Feb-24 01:00N 34°32' E 135°20'0 0.1
2018-Feb-24 00:30N 34°32' E 135°20'9 8.9
2018-Feb-23 23:30N 34°34' E 135°09'611.3
2018-Feb-23 23:00N 34°36' E 135°03'611.2
2018-Feb-23 22:30N 34°36' E 134°56'611.2
2018-Feb-23 22:00N 34°33' E 134°50'510.8
2018-Feb-23 21:30N 34°31' E 134°44'510.7
2018-Feb-23 21:01N 34°29' E 134°38'510.7
2018-Feb-23 20:30N 34°27' E 134°32'510.7
2018-Feb-23 19:59N 34°25' E 134°25'810.6
2018-Feb-23 19:14N 34°24' E 134°16'80 9.4
2018-Feb-23 10:41N 34°03' E 132°42'210.1
2018-Feb-23 10:29N 34°02' E 132°40'20 9.5
2018-Feb-23 08:24N 33°50' E 132°21'410.4
2018-Feb-23 08:00N 33°50' E 132°16'610.5
2018-Feb-23 07:25N 33°50' E 132°09'1810.5
2018-Feb-23 05:43N 33°55' E 131°48'210.2
2018-Feb-23 05:29N 33°57' E 131°46'5 8.8
2018-Feb-23 04:59N 34°02' E 131°46'2 0.7
2018-Feb-23 01:42N 34°03' E 131°48'1 2.7
2018-Feb-23 01:28N 34°03' E 131°47'0 0.8
2018-Feb-23 00:56N 34°03' E 131°48'0 0.0
2018-Feb-23 00:20N 34°03' E 131°48'0 0.0
2018-Feb-22 23:50N 34°03' E 131°48'0 0.0
2018-Feb-22 23:08N 34°03' E 131°48'0 0.0
2018-Feb-22 22:50N 34°03' E 131°48'0 0.0
2018-Feb-22 22:26N 34°03' E 131°48'1 2.9
2018-Feb-22 22:00N 34°02' E 131°47'5 9.8
2018-Feb-22 21:30N 33°57' E 131°46'611.5
2018-Feb-22 20:56N 33°53' E 131°52'511.5
2018-Feb-22 20:30N 33°50' E 131°57'611.2
2018-Feb-22 20:00N 33°46' E 132°02'611.8
2018-Feb-22 19:29N 33°49' E 132°08'611.5
2018-Feb-22 19:00N 33°50' E 132°15'611.6
2018-Feb-22 18:30N 33°50' E 132°22'611.3
2018-Feb-22 18:00N 33°54' E 132°27'810.7
2018-Feb-22 17:16N 33°59' E 132°34'310.1
2018-Feb-22 17:00N 34°01' E 132°37'510.7
2018-Feb-22 16:30N 34°03' E 132°42'8910.1
2018-Feb-22 07:45N 34°26' E 134°26'311.5
2018-Feb-22 07:30N 34°28' E 134°29'611.6
2018-Feb-22 06:59N 34°30' E 134°36'611.6
2018-Feb-22 06:30N 34°32' E 134°42'611.9
2018-Feb-22 06:00N 34°34' E 134°49'612.3
2018-Feb-22 05:30N 34°36' E 134°55'611.4
2018-Feb-22 05:01N 34°37' E 135°02'612.1
2018-Feb-22 04:30N 34°35' E 135°10'611.9
2018-Feb-22 04:00N 34°34' E 135°17'611.8
2018-Feb-22 03:30N 34°33' E 135°24'1 1.9
2018-Feb-22 02:58N 34°34' E 135°25'0 0.0
2018-Feb-22 02:28N 34°34' E 135°25'0 0.0
2018-Feb-22 01:58N 34°34' E 135°25'0 0.0
2018-Feb-22 01:22N 34°34' E 135°25'0 0.0
2018-Feb-22 00:52N 34°34' E 135°25'0 0.0
2018-Feb-22 00:25N 34°34' E 135°25'0 0.0
2018-Feb-21 23:58N 34°34' E 135°25'0 0.0
2018-Feb-21 23:31N 34°34' E 135°25'1 1.6
2018-Feb-21 23:00N 34°33' E 135°24'4 8.3
2018-Feb-21 22:30N 34°32' E 135°19'0 0.1
2018-Feb-21 21:59N 34°32' E 135°19'0 0.0
2018-Feb-21 21:28N 34°32' E 135°19'0 0.0
2018-Feb-21 20:59N 34°32' E 135°19'0 0.0
2018-Feb-21 20:26N 34°32' E 135°19'0 0.0
2018-Feb-21 19:59N 34°32' E 135°19'0 0.0
2018-Feb-21 19:29N 34°32' E 135°19'0 0.0
2018-Feb-21 18:59N 34°32' E 135°19'0 0.0
2018-Feb-21 18:29N 34°32' E 135°19'0 0.0
2018-Feb-21 17:58N 34°32' E 135°19'0 0.0
2018-Feb-21 17:29N 34°32' E 135°19'0 0.0
2018-Feb-21 16:58N 34°32' E 135°19'0 0.0
2018-Feb-21 16:28N 34°32' E 135°19'0 0.0
2018-Feb-21 15:59N 34°32' E 135°19'0 0.0
2018-Feb-21 15:28N 34°32' E 135°19'0 0.0
2018-Feb-21 14:59N 34°32' E 135°19'0 0.0
2018-Feb-21 14:28N 34°32' E 135°19'0 0.0
2018-Feb-21 13:58N 34°32' E 135°19'0 0.0
2018-Feb-21 13:28N 34°32' E 135°19'0 0.0
2018-Feb-21 12:58N 34°32' E 135°19'0 0.0
2018-Feb-21 12:29N 34°32' E 135°19'0 0.0
2018-Feb-21 11:59N 34°32' E 135°19'0 0.0
2018-Feb-21 11:29N 34°32' E 135°19'0 0.0
2018-Feb-21 10:58N 34°32' E 135°19'0 0.8
2018-Feb-21 10:30N 34°32' E 135°19'510.4
2018-Feb-21 10:00N 34°34' E 135°13'510.7
2018-Feb-21 09:30N 34°34' E 135°07'713.1
2018-Feb-21 08:59N 34°37' E 134°59'613.1
2018-Feb-21 08:31N 34°34' E 134°52'611.6
2018-Feb-21 08:01N 34°32' E 134°45'611.2
2018-Feb-21 07:30N 34°30' E 134°39'510.7
2018-Feb-21 07:00N 34°28' E 134°33'510.6
2018-Feb-21 06:30N 34°26' E 134°27'  
2018-Feb-18 12:56N 34°03' E 132°42'511.0
2018-Feb-18 12:30N 34°01' E 132°38'1710.1
2018-Feb-18 10:49N 33°50' E 132°22'4 9.8
2018-Feb-18 10:26N 33°50' E 132°17'12 9.2
2018-Feb-18 09:05N 33°46' E 132°03'8 9.0
2018-Feb-18 08:15N 33°46' E 131°54'2 9.4
2018-Feb-18 07:59N 33°46' E 131°51'5 9.5
2018-Feb-18 07:30N 33°47' E 131°46'5 9.9
2018-Feb-18 07:00N 33°48' E 131°40'510.0
2018-Feb-18 06:30N 33°49' E 131°34'510.0
2018-Feb-18 06:00N 33°50' E 131°28'5 9.9
2018-Feb-18 05:30N 33°51' E 131°22'5 9.8
2018-Feb-18 05:00N 33°52' E 131°16'5 9.0
2018-Feb-18 04:30N 33°55' E 131°13'1 2.4
2018-Feb-18 04:00N 33°57' E 131°13'0 0.0
2018-Feb-18 03:30N 33°57' E 131°13'0 0.0
2018-Feb-18 03:00N 33°57' E 131°13'0 0.0
2018-Feb-18 02:30N 33°57' E 131°13'0 0.0
2018-Feb-18 02:00N 33°57' E 131°13'0 0.0
2018-Feb-18 01:30N 33°57' E 131°13'0 0.0
2018-Feb-18 01:01N 33°57' E 131°13'0 0.6
2018-Feb-18 00:30N 33°56' E 131°13'1 1.8
2018-Feb-18 00:00N 33°56' E 131°13'0 0.0
2018-Feb-17 23:30N 33°56' E 131°13'0 0.0
2018-Feb-17 22:58N 33°56' E 131°13'1 3.2
2018-Feb-17 22:30N 33°56' E 131°15'0 0.4
2018-Feb-17 21:53N 33°56' E 131°15'0 0.0
2018-Feb-17 21:29N 33°56' E 131°15'0 0.0
2018-Feb-17 19:29N 33°56' E 131°15'0 0.0
2018-Feb-17 18:23N 33°56' E 131°15'0 0.1
2018-Feb-17 17:59N 33°56' E 131°15'0 0.1
2018-Feb-17 17:23N 33°56' E 131°15'0 0.1
2018-Feb-17 16:59N 33°56' E 131°15'0 0.0
2018-Feb-17 16:10N 33°56' E 131°15'0 0.0
2018-Feb-17 15:53N 33°56' E 131°15'0 0.0
2018-Feb-17 15:29N 33°56' E 131°15'0 0.0
2018-Feb-17 14:58N 33°56' E 131°15'0 0.0
2018-Feb-17 13:29N 33°56' E 131°15'0 0.0
2018-Feb-17 12:58N 33°56' E 131°15'0 0.0
2018-Feb-17 12:16N 33°56' E 131°15'0 0.0
2018-Feb-17 11:53N 33°56' E 131°15'0 0.1
2018-Feb-17 11:29N 33°56' E 131°15'0 0.1
2018-Feb-17 10:47N 33°56' E 131°15'0 0.0
2018-Feb-17 10:16N 33°56' E 131°15'0 0.0
2018-Feb-17 09:59N 33°56' E 131°15'0 0.0
2018-Feb-17 09:30N 33°56' E 131°15'0 0.0
2018-Feb-17 09:00N 33°56' E 131°15'0 0.0
2018-Feb-17 08:30N 33°56' E 131°15'0 0.1
2018-Feb-17 08:00N 33°56' E 131°15'4 7.6
2018-Feb-17 07:30N 33°52' E 131°15'510.1
2018-Feb-17 07:00N 33°50' E 131°21'5 9.7
2018-Feb-17 06:30N 33°47' E 131°26'5 9.8
2018-Feb-17 06:00N 33°45' E 131°31'5 9.5
2018-Feb-17 05:30N 33°43' E 131°36'4 8.1
2018-Feb-17 05:00N 33°41' E 131°40'4 8.7
2018-Feb-17 04:30N 33°38' E 131°44'4 8.6
2018-Feb-17 04:00N 33°35' E 131°48'9 9.2
2018-Feb-17 03:02N 33°27' E 131°53'010.1
2018-Feb-17 03:00N 33°27' E 131°53'  
Track history (hours):
 
Tides and Currents Weather Stations Pressure Air Temp Water Temp Dewpoint Dewpoint Depression Visibility Wind Speed Wind Dir Waves Ship Positions

Kyokushinmaru No.2

Last reported at 2018-Feb-24 05:29 UTC. Time now 2018-Feb-24 05:59 UTC.
Position N 34°34' E 135°25'.

Length 58 m; draft 4.6 m.

Type: Tanker. MMSI: 431501862.

Date/timePositionNaut miles runAvg speedWind from/ knotsBaromVisibWave heightAir tempDewpointWater temp
2018-Feb-24 05:29N 34°34' E 135°25'0 0.0
2018-Feb-24 04:56N 34°34' E 135°25'0 0.0
2018-Feb-24 04:23N 34°34' E 135°25'0 0.0
2018-Feb-24 04:00N 34°34' E 135°25'0 0.6
2018-Feb-24 03:31N 34°34' E 135°25'4 8.3
2018-Feb-24 03:00N 34°32' E 135°20'0 0.5
2018-Feb-24 02:30N 34°32' E 135°20'0 0.0
2018-Feb-24 02:00N 34°32' E 135°20'0 0.0
2018-Feb-24 01:27N 34°32' E 135°20'0 0.0
2018-Feb-24 01:00N 34°32' E 135°20'0 0.1
2018-Feb-24 00:30N 34°32' E 135°20'9 8.9
2018-Feb-23 23:30N 34°34' E 135°09'611.3
2018-Feb-23 23:00N 34°36' E 135°03'611.2
2018-Feb-23 22:30N 34°36' E 134°56'611.2
2018-Feb-23 22:00N 34°33' E 134°50'510.8
2018-Feb-23 21:30N 34°31' E 134°44'510.7
2018-Feb-23 21:01N 34°29' E 134°38'510.7
2018-Feb-23 20:30N 34°27' E 134°32'510.7
2018-Feb-23 19:59N 34°25' E 134°25'810.6
2018-Feb-23 19:14N 34°24' E 134°16'80 9.4
2018-Feb-23 10:41N 34°03' E 132°42'210.1
2018-Feb-23 10:29N 34°02' E 132°40'20 9.5
2018-Feb-23 08:24N 33°50' E 132°21'410.4
2018-Feb-23 08:00N 33°50' E 132°16'610.5
2018-Feb-23 07:25N 33°50' E 132°09'1810.5
2018-Feb-23 05:43N 33°55' E 131°48'210.2
2018-Feb-23 05:29N 33°57' E 131°46'5 8.8
2018-Feb-23 04:59N 34°02' E 131°46'2 0.7
2018-Feb-23 01:42N 34°03' E 131°48'1 2.7
2018-Feb-23 01:28N 34°03' E 131°47'0 0.8
2018-Feb-23 00:56N 34°03' E 131°48'0 0.0
2018-Feb-23 00:20N 34°03' E 131°48'0 0.0
2018-Feb-22 23:50N 34°03' E 131°48'0 0.0
2018-Feb-22 23:08N 34°03' E 131°48'0 0.0
2018-Feb-22 22:50N 34°03' E 131°48'0 0.0
2018-Feb-22 22:26N 34°03' E 131°48'1 2.9
2018-Feb-22 22:00N 34°02' E 131°47'5 9.8
2018-Feb-22 21:30N 33°57' E 131°46'611.5
2018-Feb-22 20:56N 33°53' E 131°52'511.5
2018-Feb-22 20:30N 33°50' E 131°57'611.2
2018-Feb-22 20:00N 33°46' E 132°02'611.8
2018-Feb-22 19:29N 33°49' E 132°08'611.5
2018-Feb-22 19:00N 33°50' E 132°15'611.6
2018-Feb-22 18:30N 33°50' E 132°22'611.3
2018-Feb-22 18:00N 33°54' E 132°27'810.7
2018-Feb-22 17:16N 33°59' E 132°34'310.1
2018-Feb-22 17:00N 34°01' E 132°37'510.7
2018-Feb-22 16:30N 34°03' E 132°42'8910.1
2018-Feb-22 07:45N 34°26' E 134°26'311.5
2018-Feb-22 07:30N 34°28' E 134°29'611.6
2018-Feb-22 06:59N 34°30' E 134°36'611.6
2018-Feb-22 06:30N 34°32' E 134°42'611.9
2018-Feb-22 06:00N 34°34' E 134°49'612.3
2018-Feb-22 05:30N 34°36' E 134°55'611.4
2018-Feb-22 05:01N 34°37' E 135°02'612.1
2018-Feb-22 04:30N 34°35' E 135°10'611.9
2018-Feb-22 04:00N 34°34' E 135°17'611.8
2018-Feb-22 03:30N 34°33' E 135°24'1 1.9
2018-Feb-22 02:58N 34°34' E 135°25'0 0.0
2018-Feb-22 02:28N 34°34' E 135°25'0 0.0
2018-Feb-22 01:58N 34°34' E 135°25'0 0.0
2018-Feb-22 01:22N 34°34' E 135°25'0 0.0
2018-Feb-22 00:52N 34°34' E 135°25'0 0.0
2018-Feb-22 00:25N 34°34' E 135°25'0 0.0
2018-Feb-21 23:58N 34°34' E 135°25'0 0.0
2018-Feb-21 23:31N 34°34' E 135°25'1 1.6
2018-Feb-21 23:00N 34°33' E 135°24'4 8.3
2018-Feb-21 22:30N 34°32' E 135°19'0 0.1
2018-Feb-21 21:59N 34°32' E 135°19'0 0.0
2018-Feb-21 21:28N 34°32' E 135°19'0 0.0
2018-Feb-21 20:59N 34°32' E 135°19'0 0.0
2018-Feb-21 20:26N 34°32' E 135°19'0 0.0
2018-Feb-21 19:59N 34°32' E 135°19'0 0.0
2018-Feb-21 19:29N 34°32' E 135°19'0 0.0
2018-Feb-21 18:59N 34°32' E 135°19'0 0.0
2018-Feb-21 18:29N 34°32' E 135°19'0 0.0
2018-Feb-21 17:58N 34°32' E 135°19'0 0.0
2018-Feb-21 17:29N 34°32' E 135°19'0 0.0
2018-Feb-21 16:58N 34°32' E 135°19'0 0.0
2018-Feb-21 16:28N 34°32' E 135°19'0 0.0
2018-Feb-21 15:59N 34°32' E 135°19'0 0.0
2018-Feb-21 15:28N 34°32' E 135°19'0 0.0
2018-Feb-21 14:59N 34°32' E 135°19'0 0.0
2018-Feb-21 14:28N 34°32' E 135°19'0 0.0
2018-Feb-21 13:58N 34°32' E 135°19'0 0.0
2018-Feb-21 13:28N 34°32' E 135°19'0 0.0
2018-Feb-21 12:58N 34°32' E 135°19'0 0.0
2018-Feb-21 12:29N 34°32' E 135°19'0 0.0
2018-Feb-21 11:59N 34°32' E 135°19'0 0.0
2018-Feb-21 11:29N 34°32' E 135°19'0 0.0
2018-Feb-21 10:58N 34°32' E 135°19'0 0.8
2018-Feb-21 10:30N 34°32' E 135°19'510.4
2018-Feb-21 10:00N 34°34' E 135°13'510.7
2018-Feb-21 09:30N 34°34' E 135°07'713.1
2018-Feb-21 08:59N 34°37' E 134°59'613.1
2018-Feb-21 08:31N 34°34' E 134°52'611.6
2018-Feb-21 08:01N 34°32' E 134°45'611.2
2018-Feb-21 07:30N 34°30' E 134°39'510.7
2018-Feb-21 07:00N 34°28' E 134°33'510.6
2018-Feb-21 06:30N 34°26' E 134°27'  
2018-Feb-18 12:56N 34°03' E 132°42'511.0
2018-Feb-18 12:30N 34°01' E 132°38'1710.1
2018-Feb-18 10:49N 33°50' E 132°22'4 9.8
2018-Feb-18 10:26N 33°50' E 132°17'12 9.2
2018-Feb-18 09:05N 33°46' E 132°03'8 9.0
2018-Feb-18 08:15N 33°46' E 131°54'2 9.4
2018-Feb-18 07:59N 33°46' E 131°51'5 9.5
2018-Feb-18 07:30N 33°47' E 131°46'5 9.9
2018-Feb-18 07:00N 33°48' E 131°40'510.0
2018-Feb-18 06:30N 33°49' E 131°34'510.0
2018-Feb-18 06:00N 33°50' E 131°28'5 9.9
2018-Feb-18 05:30N 33°51' E 131°22'5 9.8
2018-Feb-18 05:00N 33°52' E 131°16'5 9.0
2018-Feb-18 04:30N 33°55' E 131°13'1 2.4
2018-Feb-18 04:00N 33°57' E 131°13'0 0.0
2018-Feb-18 03:30N 33°57' E 131°13'0 0.0
2018-Feb-18 03:00N 33°57' E 131°13'0 0.0
2018-Feb-18 02:30N 33°57' E 131°13'0 0.0
2018-Feb-18 02:00N 33°57' E 131°13'0 0.0
2018-Feb-18 01:30N 33°57' E 131°13'0 0.0
2018-Feb-18 01:01N 33°57' E 131°13'0 0.6
2018-Feb-18 00:30N 33°56' E 131°13'1 1.8
2018-Feb-18 00:00N 33°56' E 131°13'0 0.0
2018-Feb-17 23:30N 33°56' E 131°13'0 0.0
2018-Feb-17 22:58N 33°56' E 131°13'1 3.2
2018-Feb-17 22:30N 33°56' E 131°15'0 0.4
2018-Feb-17 21:53N 33°56' E 131°15'0 0.0
2018-Feb-17 21:29N 33°56' E 131°15'0 0.0
2018-Feb-17 19:29N 33°56' E 131°15'0 0.0
2018-Feb-17 18:23N 33°56' E 131°15'0 0.1
2018-Feb-17 17:59N 33°56' E 131°15'0 0.1
2018-Feb-17 17:23N 33°56' E 131°15'0 0.1
2018-Feb-17 16:59N 33°56' E 131°15'0 0.0
2018-Feb-17 16:10N 33°56' E 131°15'0 0.0
2018-Feb-17 15:53N 33°56' E 131°15'0 0.0
2018-Feb-17 15:29N 33°56' E 131°15'0 0.0
2018-Feb-17 14:58N 33°56' E 131°15'0 0.0
2018-Feb-17 13:29N 33°56' E 131°15'0 0.0
2018-Feb-17 12:58N 33°56' E 131°15'0 0.0
2018-Feb-17 12:16N 33°56' E 131°15'0 0.0
2018-Feb-17 11:53N 33°56' E 131°15'0 0.1
2018-Feb-17 11:29N 33°56' E 131°15'0 0.1
2018-Feb-17 10:47N 33°56' E 131°15'0 0.0
2018-Feb-17 10:16N 33°56' E 131°15'0 0.0
2018-Feb-17 09:59N 33°56' E 131°15'0 0.0
2018-Feb-17 09:30N 33°56' E 131°15'0 0.0
2018-Feb-17 09:00N 33°56' E 131°15'0 0.0
2018-Feb-17 08:30N 33°56' E 131°15'0 0.1
2018-Feb-17 08:00N 33°56' E 131°15'4 7.6
2018-Feb-17 07:30N 33°52' E 131°15'510.1
2018-Feb-17 07:00N 33°50' E 131°21'5 9.7
2018-Feb-17 06:30N 33°47' E 131°26'5 9.8
2018-Feb-17 06:00N 33°45' E 131°31'5 9.5
2018-Feb-17 05:30N 33°43' E 131°36'4 8.1
2018-Feb-17 05:00N 33°41' E 131°40'4 8.7
2018-Feb-17 04:30N 33°38' E 131°44'4 8.6
2018-Feb-17 04:00N 33°35' E 131°48'9 9.2
2018-Feb-17 03:02N 33°27' E 131°53'010.1
2018-Feb-17 03:00N 33°27' E 131°53'  

Dump ship's entire track history